createdAt,value
2019-02-21T00:00:23.542Z,80.41
2019-02-21T00:02:43.928Z,80.56
2019-02-21T00:05:13.168Z,80.82
2019-02-21T00:07:42.415Z,81.15
2019-02-21T00:10:11.839Z,81.05
2019-02-21T00:12:41.287Z,81.01
2019-02-21T00:15:10.726Z,81.18
2019-02-21T00:17:40.181Z,80.76
2019-02-21T00:20:09.630Z,80.83
2019-02-21T00:22:38.781Z,80.67
2019-02-21T00:25:08.033Z,80.39
2019-02-21T00:27:37.284Z,80.33
2019-02-21T00:30:07.485Z,80.53
2019-02-21T00:32:36.781Z,80.55
2019-02-21T00:35:06.243Z,80.14
2019-02-21T00:37:35.711Z,80.35
2019-02-21T00:40:07.004Z,80.37
2019-02-21T00:42:36.233Z,80.37
2019-02-21T00:45:05.643Z,80.68
2019-02-21T00:47:34.892Z,80.96
2019-02-21T00:50:04.693Z,81.05
2019-02-21T00:52:34.125Z,81.22
2019-02-21T00:55:03.352Z,81.32
2019-02-21T00:57:32.579Z,81.48
2019-02-21T01:00:01.827Z,81.68
2019-02-21T01:02:31.075Z,81.53
2019-02-21T01:05:00.471Z,81.57
2019-02-21T01:07:29.695Z,81.55
2019-02-21T01:09:58.981Z,81.56
2019-02-21T01:12:28.236Z,81.60
2019-02-21T01:14:57.497Z,81.68
2019-02-21T01:17:26.883Z,81.44
2019-02-21T01:19:56.175Z,81.40
2019-02-21T01:22:25.405Z,81.16
2019-02-21T01:24:54.667Z,81.17
2019-02-21T01:27:23.928Z,81.11
2019-02-21T01:29:53.169Z,81.21
2019-02-21T01:32:22.379Z,81.16
2019-02-21T01:34:51.709Z,81.26
2019-02-21T01:37:20.943Z,81.29
2019-02-21T01:39:50.172Z,81.41
2019-02-21T01:42:19.488Z,81.57
2019-02-21T01:44:48.793Z,81.88
2019-02-21T01:47:18.094Z,82.04
2019-02-21T01:49:47.327Z,82.44
2019-02-21T01:52:16.563Z,82.53
2019-02-21T01:54:45.851Z,82.58
2019-02-21T01:57:15.084Z,82.74
2019-02-21T01:59:44.345Z,82.72
2019-02-21T02:02:13.699Z,82.61
2019-02-21T02:04:42.991Z,82.98
2019-02-21T02:07:12.291Z,83.09
2019-02-21T02:09:41.821Z,83.40
2019-02-21T02:12:11.073Z,83.57
2019-02-21T02:14:40.323Z,83.49
2019-02-21T02:17:09.583Z,83.42
2019-02-21T02:19:38.810Z,83.37
2019-02-21T02:22:08.131Z,83.23
2019-02-21T02:24:37.403Z,83.17
2019-02-21T02:27:06.680Z,83.39
2019-02-21T02:29:35.942Z,83.71
2019-02-21T02:32:05.205Z,83.83
2019-02-21T02:34:34.479Z,83.81
2019-02-21T02:37:03.720Z,83.96
2019-02-21T02:39:32.957Z,83.88
2019-02-21T02:42:02.296Z,83.78
2019-02-21T02:44:31.539Z,83.44
2019-02-21T02:47:00.769Z,83.22
2019-02-21T02:49:30.104Z,83.26
2019-02-21T02:51:59.403Z,83.02
2019-02-21T02:54:50.888Z,83.02
2019-02-21T02:57:20.128Z,82.68
2019-02-21T02:59:49.400Z,82.95
2019-02-21T03:02:18.652Z,82.96
2019-02-21T03:04:48.207Z,82.90
2019-02-21T03:07:17.461Z,82.97
2019-02-21T03:09:46.741Z,83.02
2019-02-21T03:12:15.909Z,83.42
2019-02-21T03:14:45.212Z,83.46
2019-02-21T03:17:14.540Z,83.47
2019-02-21T03:19:43.821Z,83.55
2019-02-21T03:22:13.133Z,83.42
2019-02-21T03:24:42.374Z,83.19
2019-02-21T03:27:11.660Z,83.54
2019-02-21T03:29:40.903Z,83.37
2019-02-21T03:32:10.120Z,83.38
2019-02-21T03:34:39.291Z,83.09
2019-02-21T03:37:08.550Z,83.22
2019-02-21T03:39:37.798Z,83.53
2019-02-21T03:42:07.059Z,83.87
2019-02-21T03:44:36.309Z,83.85
2019-02-21T03:47:05.567Z,84.06
2019-02-21T03:49:34.781Z,84.22
2019-02-21T03:52:04.092Z,84.61
2019-02-21T03:54:33.322Z,84.92
2019-02-21T03:57:02.648Z,84.88
2019-02-21T03:59:31.976Z,85.24
2019-02-21T04:02:05.131Z,85.06
2019-02-21T04:04:32.292Z,84.96
2019-02-21T04:07:01.529Z,84.96
2019-02-21T04:09:30.846Z,84.67
2019-02-21T04:12:00.111Z,84.67
2019-02-21T04:14:29.449Z,84.76
2019-02-21T04:16:58.755Z,85.06
2019-02-21T04:19:28.007Z,85.53
2019-02-21T04:21:57.150Z,85.75
2019-02-21T04:24:26.464Z,86.49
2019-02-21T04:26:55.717Z,86.62
2019-02-21T04:29:24.959Z,87.27
2019-02-21T04:31:54.204Z,87.24
2019-02-21T04:34:23.466Z,87.02
2019-02-21T04:36:55.700Z,86.95
2019-02-21T04:39:24.960Z,87.72
2019-02-21T04:41:54.251Z,87.86
2019-02-21T04:44:23.468Z,88.04
2019-02-21T04:46:52.708Z,88.28
2019-02-21T04:49:21.955Z,88.40
2019-02-21T04:51:51.160Z,88.21
2019-02-21T04:54:20.452Z,87.99
2019-02-21T04:56:49.637Z,87.96
2019-02-21T04:59:18.892Z,88.21
2019-02-21T05:01:48.129Z,88.30
2019-02-21T05:04:17.347Z,88.42
2019-02-21T05:06:46.569Z,88.27
2019-02-21T05:09:17.087Z,88.63
2019-02-21T05:11:46.354Z,88.75
2019-02-21T05:14:15.595Z,89.12
2019-02-21T05:16:44.866Z,89.09
2019-02-21T05:19:14.084Z,89.31
2019-02-21T05:21:43.362Z,89.48
2019-02-21T05:24:12.610Z,89.81
2019-02-21T05:26:43.499Z,89.90
2019-02-21T05:29:13.991Z,90.03
2019-02-21T05:31:59.772Z,89.89
2019-02-21T05:34:36.655Z,89.74
2019-02-21T05:37:10.643Z,89.83
2019-02-21T05:39:44.387Z,89.92
2019-02-21T05:42:21.398Z,90.06
2019-02-21T05:45:07.314Z,90.52
2019-02-21T05:47:38.256Z,90.99
2019-02-21T05:50:09.579Z,91.29
2019-02-21T05:52:56.689Z,91.54
2019-02-21T05:55:30.166Z,91.58
2019-02-21T05:58:17.178Z,91.56
2019-02-21T06:01:00.177Z,91.61
2019-02-21T06:03:35.866Z,91.25
2019-02-21T06:06:18.559Z,90.94
2019-02-21T06:09:07.814Z,90.88
2019-02-21T06:11:38.701Z,90.86
2019-02-21T06:14:27.833Z,91.03
2019-02-21T06:17:07.709Z,90.89
2019-02-21T06:19:50.361Z,90.74
2019-02-21T06:22:27.348Z,90.92
2019-02-21T06:25:00.943Z,91.14
2019-02-21T06:27:43.756Z,91.40
2019-02-21T06:30:23.402Z,91.56
2019-02-21T06:32:52.648Z,91.46
2019-02-21T06:35:21.899Z,91.61
2019-02-21T06:37:51.180Z,91.44
2019-02-21T06:40:20.415Z,91.46
2019-02-21T06:42:49.670Z,91.32
2019-02-21T06:45:18.920Z,91.30
2019-02-21T06:47:48.241Z,91.17
2019-02-21T06:50:26.342Z,91.05
2019-02-21T06:52:48.444Z,90.95
2019-02-21T06:55:35.599Z,91.07
2019-02-21T06:58:04.912Z,91.22
2019-02-21T07:00:34.098Z,90.87
2019-02-21T07:03:03.349Z,90.47
2019-02-21T07:05:32.587Z,90.03
2019-02-21T07:08:01.947Z,89.71
2019-02-21T07:10:31.173Z,89.33
2019-02-21T07:13:00.520Z,89.37
2019-02-21T07:15:29.743Z,89.67
2019-02-21T07:17:58.993Z,89.30
2019-02-21T07:20:28.338Z,89.39
2019-02-21T07:22:57.573Z,89.28
2019-02-21T07:25:32.487Z,88.93
2019-02-21T07:28:11.405Z,88.86
2019-02-21T07:30:33.511Z,88.48
2019-02-21T07:33:02.758Z,88.49
2019-02-21T07:35:32.066Z,88.45
2019-02-21T07:38:01.483Z,88.27
2019-02-21T07:40:30.747Z,88.22
2019-02-21T07:43:00.064Z,87.93
2019-02-21T07:45:29.316Z,87.74
2019-02-21T07:47:58.558Z,87.73
2019-02-21T07:50:27.817Z,87.71
2019-02-21T07:53:02.342Z,87.37
2019-02-21T07:55:28.032Z,87.52
2019-02-21T07:57:57.289Z,87.66
2019-02-21T08:00:26.530Z,87.93
2019-02-21T08:02:55.779Z,88.01
2019-02-21T08:05:25.001Z,88.01
2019-02-21T08:07:54.254Z,88.11
2019-02-21T08:10:33.139Z,88.02
2019-02-21T08:12:54.400Z,88.06
2019-02-21T08:15:23.841Z,87.93
2019-02-21T08:17:53.070Z,87.89
2019-02-21T08:20:33.264Z,87.56
2019-02-21T08:22:53.397Z,87.27
2019-02-21T08:25:22.636Z,86.82
2019-02-21T08:27:51.933Z,86.69
2019-02-21T08:30:21.242Z,86.22
2019-02-21T08:33:03.958Z,85.00
2019-02-21T08:35:33.302Z,84.30
2019-02-21T08:38:02.541Z,84.09
2019-02-21T08:40:31.776Z,82.38
2019-02-21T08:43:03.874Z,82.62
2019-02-21T08:45:32.028Z,84.24
2019-02-21T08:48:01.239Z,84.29
2019-02-21T08:50:30.505Z,85.03
2019-02-21T08:53:01.006Z,84.72
2019-02-21T08:55:30.557Z,85.13
2019-02-21T08:57:59.817Z,85.08
2019-02-21T09:00:31.456Z,85.21
2019-02-21T09:03:00.092Z,85.51
2019-02-21T09:05:29.451Z,85.04
2019-02-21T09:07:58.675Z,84.69
2019-02-21T09:10:28.150Z,84.90
2019-02-21T09:12:57.419Z,85.21
2019-02-21T09:15:26.720Z,84.42
2019-02-21T09:17:55.983Z,83.47
2019-02-21T09:20:25.235Z,82.84
2019-02-21T09:22:54.483Z,82.98
2019-02-21T09:25:23.724Z,83.42
2019-02-21T09:27:52.967Z,84.34
2019-02-21T09:30:22.248Z,84.41
2019-02-21T09:32:51.608Z,84.78
2019-02-21T09:35:20.963Z,85.24
2019-02-21T09:37:50.279Z,85.18
2019-02-21T09:40:19.502Z,85.52
2019-02-21T09:42:48.745Z,84.80
2019-02-21T09:45:19.572Z,84.21
2019-02-21T09:47:48.919Z,83.87
2019-02-21T09:50:18.418Z,83.68
2019-02-21T09:52:47.642Z,83.52
2019-02-21T09:55:18.179Z,83.83
2019-02-21T09:57:47.467Z,83.35
2019-02-21T10:00:19.233Z,83.02
2019-02-21T10:02:48.629Z,82.69
2019-02-21T10:05:18.331Z,82.74
2019-02-21T10:07:47.583Z,82.75
2019-02-21T10:10:20.567Z,82.39
2019-02-21T10:12:49.795Z,82.33
2019-02-21T10:15:19.161Z,82.47
2019-02-21T10:17:50.832Z,82.47
2019-02-21T10:20:22.497Z,82.42
2019-02-21T10:22:51.945Z,81.99
2019-02-21T10:25:26.736Z,81.75
2019-02-21T10:27:58.714Z,81.75
2019-02-21T10:30:26.999Z,83.04
2019-02-21T10:32:56.268Z,83.03
2019-02-21T10:35:25.515Z,83.06
2019-02-21T10:37:54.776Z,82.99
2019-02-21T10:40:24.040Z,83.47
2019-02-21T10:42:53.291Z,83.55
2019-02-21T10:45:23.237Z,83.72
2019-02-21T10:47:52.523Z,83.80
2019-02-21T10:50:22.104Z,83.57
2019-02-21T10:52:51.359Z,82.64
2019-02-21T10:55:20.617Z,82.64
2019-02-21T10:57:49.866Z,82.76
2019-02-21T11:00:27.646Z,82.69
2019-02-21T11:02:56.992Z,82.71
2019-02-21T11:05:26.328Z,82.02
2019-02-21T11:07:55.604Z,82.02
2019-02-21T11:10:26.835Z,81.74
2019-02-21T11:12:56.163Z,81.76
2019-02-21T11:15:26.081Z,81.20
2019-02-21T11:17:55.395Z,80.98
2019-02-21T11:20:24.799Z,80.91
2019-02-21T11:22:54.089Z,80.91
2019-02-21T11:25:23.336Z,80.79
2019-02-21T11:27:52.589Z,80.62
2019-02-21T11:30:22.178Z,80.49
2019-02-21T11:32:51.484Z,80.49
2019-02-21T11:35:20.755Z,79.58
2019-02-21T11:37:50.009Z,79.24
2019-02-21T11:40:19.449Z,79.24
2019-02-21T11:42:48.724Z,78.00
2019-02-21T11:45:19.423Z,78.00
2019-02-21T11:47:48.762Z,77.80
2019-02-21T11:50:19.843Z,78.19
2019-02-21T11:52:49.247Z,77.70
2019-02-21T11:55:23.453Z,77.42
2019-02-21T11:57:52.749Z,77.42
2019-02-21T12:00:40.143Z,77.35
2019-02-21T12:03:27.173Z,77.30
2019-02-21T12:05:56.433Z,77.41
2019-02-21T12:08:25.695Z,77.41
2019-02-21T12:10:54.975Z,77.21
2019-02-21T12:13:24.196Z,76.39
2019-02-21T12:15:53.507Z,76.34
2019-02-21T12:18:22.771Z,75.62
2019-02-21T12:20:52.129Z,75.31
2019-02-21T12:23:21.504Z,75.06
2019-02-21T12:25:50.709Z,74.82
2019-02-21T12:28:19.948Z,74.95
2019-02-21T12:30:49.207Z,74.92
2019-02-21T12:33:18.486Z,74.74
2019-02-21T12:35:47.758Z,74.25
2019-02-21T12:38:17.086Z,74.07
2019-02-21T12:40:46.362Z,74.27
2019-02-21T12:43:15.614Z,74.61
2019-02-21T12:45:45.148Z,74.19
2019-02-21T12:48:14.475Z,74.00
2019-02-21T12:50:44.642Z,74.04
2019-02-21T12:53:13.929Z,74.00
2019-02-21T12:55:43.196Z,73.63
2019-02-21T12:58:12.467Z,73.47
2019-02-21T13:00:41.786Z,73.17
2019-02-21T13:03:11.042Z,73.06
2019-02-21T13:05:41.453Z,73.71
2019-02-21T13:08:10.787Z,74.11
2019-02-21T13:10:40.048Z,74.19
2019-02-21T13:13:09.271Z,74.48
2019-02-21T13:15:38.554Z,74.85
2019-02-21T13:18:15.429Z,75.38
2019-02-21T13:20:38.775Z,75.53
2019-02-21T13:23:08.064Z,75.84
2019-02-21T13:25:37.341Z,75.85
2019-02-21T13:28:06.621Z,76.26
2019-02-21T13:30:35.940Z,76.80
2019-02-21T13:33:05.198Z,76.86
2019-02-21T13:35:34.467Z,77.20
2019-02-21T13:38:03.946Z,77.79
2019-02-21T13:40:33.197Z,78.24
2019-02-21T13:43:02.524Z,78.32
2019-02-21T13:45:31.764Z,78.25
2019-02-21T13:48:01.036Z,78.49
2019-02-21T13:50:30.469Z,78.57
2019-02-21T13:52:59.717Z,78.97
2019-02-21T13:55:29.021Z,80.94
2019-02-21T13:57:58.277Z,82.10
2019-02-21T14:00:27.629Z,82.50
2019-02-21T14:02:56.864Z,84.49
2019-02-21T14:05:26.137Z,84.49
2019-02-21T14:07:55.399Z,86.12
2019-02-21T14:10:24.693Z,86.47
2019-02-21T14:12:53.974Z,87.14
2019-02-21T14:15:29.143Z,87.14
2019-02-21T14:17:58.475Z,87.78
2019-02-21T14:20:27.767Z,88.41
2019-02-21T14:22:57.069Z,88.26
2019-02-21T14:25:28.186Z,89.32
2019-02-21T14:27:57.255Z,89.31
2019-02-21T14:30:26.538Z,88.98
2019-02-21T14:32:55.795Z,89.10
2019-02-21T14:35:25.058Z,89.10
2019-02-21T14:37:54.254Z,89.06
2019-02-21T14:40:23.450Z,88.77
2019-02-21T14:42:52.705Z,88.77
2019-02-21T14:45:24.079Z,88.83
2019-02-21T14:47:53.453Z,89.44
2019-02-21T14:50:22.682Z,89.67
2019-02-21T14:52:51.870Z,89.67
2019-02-21T14:55:21.091Z,90.51
2019-02-21T14:57:50.313Z,90.85
2019-02-21T15:00:22.830Z,91.93
2019-02-21T15:02:52.014Z,91.93
2019-02-21T15:05:22.205Z,92.00
2019-02-21T15:07:51.399Z,92.18
2019-02-21T15:10:20.607Z,92.18
2019-02-21T15:12:49.930Z,92.26
2019-02-21T15:15:23.634Z,92.78
2019-02-21T15:17:52.864Z,92.78
2019-02-21T15:20:22.126Z,93.37
2019-02-21T15:22:53.915Z,93.37
2019-02-21T15:25:22.301Z,93.04
2019-02-21T15:27:51.517Z,93.54
2019-02-21T15:30:25.606Z,93.54
2019-02-21T15:32:54.810Z,94.07
2019-02-21T15:35:24.939Z,94.45
2019-02-21T15:37:54.153Z,95.04
2019-02-21T15:40:23.349Z,95.60
2019-02-21T15:42:52.979Z,95.60
2019-02-21T15:45:27.262Z,96.52
2019-02-21T15:47:56.599Z,97.03
2019-02-21T15:50:25.876Z,97.79
2019-02-21T15:52:56.449Z,98.09
2019-02-21T15:55:25.638Z,98.09
2019-02-21T15:58:03.203Z,98.15
2019-02-21T16:00:26.648Z,98.67
2019-02-21T16:02:55.832Z,98.67
2019-02-21T16:05:25.015Z,99.42
2019-02-21T16:07:54.227Z,99.42
2019-02-21T16:10:27.680Z,99.83
2019-02-21T16:12:57.308Z,99.83
2019-02-21T16:15:26.837Z,99.84
2019-02-21T16:17:56.092Z,99.84
2019-02-21T16:20:25.293Z,99.84
2019-02-21T16:22:54.635Z,100.00
2019-02-21T16:25:31.200Z,100.00
2019-02-21T16:28:00.561Z,100.00
2019-02-21T16:30:30.047Z,100.00
2019-02-21T16:32:59.282Z,100.00
2019-02-21T16:35:28.483Z,100.00
2019-02-21T16:37:57.695Z,100.00
2019-02-21T16:40:26.907Z,100.00
2019-02-21T16:42:56.193Z,100.00
2019-02-21T16:45:25.405Z,99.95
2019-02-21T16:47:54.667Z,100.00
2019-02-21T16:50:29.852Z,99.87
2019-02-21T16:52:54.915Z,99.46
2019-02-21T16:55:24.959Z,99.64
2019-02-21T16:57:54.183Z,99.81
2019-02-21T17:00:24.336Z,99.81
2019-02-21T17:02:53.595Z,99.41
2019-02-21T17:05:22.898Z,99.52
2019-02-21T17:07:52.082Z,99.92
2019-02-21T17:10:21.301Z,99.92
2019-02-21T17:12:50.507Z,99.58
2019-02-21T17:15:19.805Z,99.11
2019-02-21T17:17:49.021Z,98.28
2019-02-21T17:20:20.614Z,98.28
2019-02-21T17:22:49.946Z,98.58
2019-02-21T17:25:19.140Z,98.47
2019-02-21T17:27:49.998Z,98.37
2019-02-21T17:30:19.725Z,98.21
2019-02-21T17:32:48.996Z,98.21
2019-02-21T17:35:18.239Z,98.23
2019-02-21T17:37:47.451Z,97.90
2019-02-21T17:40:24.065Z,98.12
2019-02-21T17:42:53.364Z,97.62
2019-02-21T17:45:22.757Z,97.65
2019-02-21T17:47:51.987Z,97.08
2019-02-21T17:50:21.257Z,97.01
2019-02-21T17:52:50.452Z,96.99
2019-02-21T17:55:19.744Z,96.71
2019-02-21T17:57:48.936Z,97.33
2019-02-21T18:00:26.620Z,97.33
2019-02-21T18:02:55.826Z,97.56
2019-02-21T18:05:25.055Z,97.91
2019-02-21T18:07:54.274Z,97.28
2019-02-21T18:10:23.481Z,97.22
2019-02-21T18:12:52.779Z,96.77
2019-02-21T18:15:21.974Z,96.77
2019-02-21T18:17:51.274Z,96.41
2019-02-21T18:20:20.568Z,96.15
2019-02-21T18:22:49.788Z,96.15
2019-02-21T18:25:36.889Z,95.76
2019-02-21T18:28:06.103Z,95.15
2019-02-21T18:30:35.438Z,94.84
2019-02-21T18:33:04.662Z,95.30
2019-02-21T18:35:33.853Z,95.81
2019-02-21T18:38:03.057Z,96.66
2019-02-21T18:40:32.258Z,96.35
2019-02-21T18:43:01.448Z,96.35
2019-02-21T18:45:30.721Z,96.58
2019-02-21T18:47:59.950Z,97.06
2019-02-21T18:50:37.757Z,97.06
2019-02-21T18:53:00.195Z,96.99
2019-02-21T18:55:29.392Z,96.99
2019-02-21T18:57:58.592Z,96.20
2019-02-21T19:00:27.958Z,96.28
2019-02-21T19:02:57.158Z,95.64
2019-02-21T19:05:35.456Z,95.97
2019-02-21T19:08:04.145Z,96.16
2019-02-21T19:10:28.579Z,95.58
2019-02-21T19:12:57.851Z,95.58
2019-02-21T19:15:27.722Z,95.51
2019-02-21T19:17:56.963Z,95.51
2019-02-21T19:20:26.349Z,95.49
2019-02-21T19:22:55.710Z,95.49
2019-02-21T19:25:24.907Z,94.88
2019-02-21T19:27:54.130Z,94.88
2019-02-21T19:30:46.401Z,94.89
2019-02-21T19:33:15.792Z,95.29
2019-02-21T19:35:45.148Z,95.05
2019-02-21T19:38:14.472Z,95.05
2019-02-21T19:40:43.667Z,94.66
2019-02-21T19:43:12.871Z,94.66
2019-02-21T19:45:42.271Z,94.75
2019-02-21T19:48:11.484Z,94.69
2019-02-21T19:50:40.674Z,94.54
2019-02-21T19:53:09.909Z,94.45
2019-02-21T19:55:39.263Z,95.61
2019-02-21T19:58:08.466Z,95.85
2019-02-21T20:00:37.883Z,95.63
2019-02-21T20:03:07.311Z,95.63
2019-02-21T20:05:36.713Z,95.19
2019-02-21T20:08:08.963Z,95.19
2019-02-21T20:10:36.976Z,95.12
2019-02-21T20:13:08.022Z,94.63
2019-02-21T20:15:37.270Z,95.34
2019-02-21T20:18:06.632Z,95.34
2019-02-21T20:20:35.936Z,95.26
2019-02-21T20:23:05.183Z,95.39
2019-02-21T20:25:34.379Z,95.21
2019-02-21T20:28:03.674Z,94.94
2019-02-21T20:30:32.937Z,95.29
2019-02-21T20:33:02.121Z,95.16
2019-02-21T20:35:31.434Z,94.73
2019-02-21T20:38:00.624Z,94.73
2019-02-21T20:40:29.837Z,95.19
2019-02-21T20:42:59.047Z,95.19
2019-02-21T20:45:28.344Z,94.75
2019-02-21T20:47:57.589Z,94.75
2019-02-21T20:50:26.792Z,95.34
2019-02-21T20:52:56.045Z,95.52
2019-02-21T20:55:25.248Z,96.24
2019-02-21T20:57:54.466Z,96.36
2019-02-21T21:00:23.664Z,96.57
2019-02-21T21:02:52.868Z,96.96
2019-02-21T21:05:22.098Z,96.96
2019-02-21T21:07:51.321Z,96.28
2019-02-21T21:10:20.605Z,96.00
2019-02-21T21:12:49.827Z,96.00
2019-02-21T21:15:19.106Z,96.14
2019-02-21T21:17:48.318Z,96.14
2019-02-21T21:20:18.524Z,95.34
2019-02-21T21:22:47.700Z,95.34
2019-02-21T21:25:18.042Z,95.26
2019-02-21T21:27:47.265Z,94.81
2019-02-21T21:30:17.713Z,94.81
2019-02-21T21:32:46.937Z,94.97
2019-02-21T21:35:16.164Z,95.42
2019-02-21T21:37:45.362Z,95.42
2019-02-21T21:40:16.343Z,95.34
2019-02-21T21:42:45.650Z,95.34
2019-02-21T21:45:18.443Z,95.18
2019-02-21T21:47:47.662Z,94.89
2019-02-21T21:50:18.208Z,94.75
2019-02-21T21:52:47.474Z,95.07
2019-02-21T21:55:16.876Z,95.45
2019-02-21T21:57:46.174Z,95.45
2019-02-21T22:00:20.943Z,95.73
2019-02-21T22:02:50.160Z,95.25
2019-02-21T22:05:19.496Z,95.03
2019-02-21T22:07:49.446Z,95.03
2019-02-21T22:10:18.899Z,94.97
2019-02-21T22:12:48.101Z,94.03
2019-02-21T22:15:19.283Z,94.03
2019-02-21T22:17:48.491Z,95.00
2019-02-21T22:20:17.696Z,94.95
2019-02-21T22:22:46.912Z,94.95
2019-02-21T22:25:16.188Z,94.83
2019-02-21T22:27:45.392Z,94.36
2019-02-21T22:30:19.433Z,94.36
2019-02-21T22:32:48.555Z,94.38
2019-02-21T22:35:17.760Z,93.94
2019-02-21T22:37:47.074Z,93.79
2019-02-21T22:40:18.577Z,93.79
2019-02-21T22:42:47.762Z,93.87
2019-02-21T22:45:17.056Z,93.76
2019-02-21T22:47:46.251Z,94.11
2019-02-21T22:50:17.484Z,93.71
2019-02-21T22:52:46.760Z,94.03
2019-02-21T22:55:15.979Z,94.03
2019-02-21T22:57:45.375Z,94.82
2019-02-21T23:00:40.010Z,94.78
2019-02-21T23:03:11.635Z,94.78
2019-02-21T23:05:58.940Z,95.85
2019-02-21T23:08:43.463Z,95.83
2019-02-21T23:11:12.807Z,95.83
2019-02-21T23:13:42.071Z,95.30
2019-02-21T23:16:11.366Z,95.30
2019-02-21T23:18:40.584Z,95.58
2019-02-21T23:21:09.927Z,95.58
2019-02-21T23:23:39.110Z,95.58
2019-02-21T23:26:08.496Z,95.12
2019-02-21T23:28:37.697Z,95.22
2019-02-21T23:31:06.910Z,95.22
2019-02-21T23:33:46.435Z,95.13
2019-02-21T23:36:15.639Z,95.13
2019-02-21T23:38:44.862Z,94.42
2019-02-21T23:41:14.065Z,94.42
2019-02-21T23:43:43.421Z,94.79
2019-02-21T23:46:12.651Z,94.58
2019-02-21T23:48:41.856Z,94.44
2019-02-21T23:51:11.069Z,94.37
2019-02-21T23:53:40.283Z,94.37
2019-02-21T23:56:09.489Z,94.89
2019-02-21T23:58:38.671Z,95.32
